Terminal Aerodrome Forecast
Issued by NWS

Home | Current Version | Previous Version | Text Only | Print | Product List | Glossary On
Versions: 1 2 3 4 5 6 7 8 9 10 11 12 13
000
FTUS46 KLOX 302300
TAFWJF
TAF
KWJF 302337Z 3100/3124 26025G33KT P6SM SKC
     FM310200 26018G26KT P6SM SKC
     FM310800 25014KT P6SM SKC
     FM312000 25020G28KT P6SM SKC
     FM312200 24024G32KT P6SM SKC=

USA.gov is the U.S. government's official web portal to all federal, state and local government web resources and services.